createdAt,value
2023-05-27T00:02:03.388Z,4.90
2023-05-27T00:04:34.195Z,4.70
2023-05-27T00:07:05.172Z,5.30
2023-05-27T00:09:35.916Z,4.80
2023-05-27T00:12:07.283Z,5.50
2023-05-27T00:14:38.035Z,5.30
2023-05-27T00:17:08.779Z,5.00
2023-05-27T00:19:39.540Z,4.80
2023-05-27T00:22:10.265Z,6.00
2023-05-27T00:24:40.968Z,5.40
2023-05-27T00:27:12.728Z,4.90
2023-05-27T00:29:43.466Z,5.00
2023-05-27T00:32:14.532Z,6.10
2023-05-27T00:37:14.440Z,6.60
2023-05-27T00:39:45.203Z,5.60
2023-05-27T00:42:16.536Z,5.90
2023-05-27T00:44:47.346Z,5.50
2023-05-27T00:47:18.533Z,5.20
2023-05-27T00:49:49.241Z,5.10
2023-05-27T00:52:19.910Z,5.70
2023-05-27T00:54:51.456Z,5.90
2023-05-27T00:57:22.645Z,6.00
2023-05-27T00:59:54.037Z,5.80
2023-05-27T01:02:24.854Z,5.60
2023-05-27T01:04:55.748Z,5.80
2023-05-27T01:07:33.987Z,5.20
2023-05-27T01:10:11.972Z,6.00
2023-05-27T01:12:50.115Z,5.50
2023-05-27T01:15:21.901Z,5.90
2023-05-27T01:17:57.162Z,6.60
2023-05-27T01:20:29.505Z,5.70
2023-05-27T01:23:00.819Z,5.90
2023-05-27T01:25:33.356Z,5.60
2023-05-27T01:28:04.043Z,5.50
2023-05-27T01:30:34.897Z,5.80
2023-05-27T01:33:09.447Z,6.40
2023-05-27T01:35:45.516Z,6.60
2023-05-27T01:38:19.282Z,6.50
2023-05-27T01:40:51.853Z,5.20
2023-05-27T01:43:23.184Z,5.90
2023-05-27T01:45:54.324Z,5.40
2023-05-27T01:48:25.240Z,5.30
2023-05-27T01:50:56.015Z,5.50
2023-05-27T01:53:26.728Z,6.40
2023-05-27T01:55:57.493Z,5.00
2023-05-27T01:58:28.235Z,6.10
2023-05-27T02:00:58.998Z,6.50
2023-05-27T02:03:30.118Z,5.80
2023-05-27T02:06:00.875Z,6.20
2023-05-27T02:08:31.548Z,5.40
2023-05-27T02:11:02.254Z,5.90
2023-05-27T02:13:32.940Z,5.80
2023-05-27T02:16:03.706Z,5.90
2023-05-27T02:18:34.805Z,5.50
2023-05-27T02:23:34.856Z,6.10
2023-05-27T02:26:05.645Z,5.40
2023-05-27T02:28:36.384Z,6.30
2023-05-27T02:31:07.251Z,5.80
2023-05-27T02:33:38.026Z,6.20
2023-05-27T02:36:09.530Z,7.00
2023-05-27T02:38:40.202Z,5.00
2023-05-27T02:41:10.974Z,6.20
2023-05-27T02:43:41.739Z,5.80
2023-05-27T02:46:12.536Z,6.40
2023-05-27T02:48:43.255Z,6.40
2023-05-27T02:51:14.296Z,5.80
2023-05-27T02:56:14.210Z,5.90
2023-05-27T02:58:44.857Z,5.70
2023-05-27T03:01:15.578Z,5.70
2023-05-27T03:03:46.313Z,5.40
2023-05-27T03:06:17.206Z,5.90
2023-05-27T03:08:47.897Z,7.00
2023-05-27T03:11:18.800Z,6.40
2023-05-27T03:13:49.535Z,6.30
2023-05-27T03:16:20.302Z,6.30
2023-05-27T03:18:50.985Z,5.60
2023-05-27T03:21:21.861Z,6.00
2023-05-27T03:23:52.574Z,6.40
2023-05-27T03:26:23.309Z,6.90
2023-05-27T03:28:53.958Z,5.90
2023-05-27T03:31:24.794Z,5.70
2023-05-27T03:33:55.517Z,6.50
2023-05-27T03:36:26.379Z,5.80
2023-05-27T03:38:58.236Z,6.50
2023-05-27T03:41:29.020Z,6.40
2023-05-27T03:43:59.753Z,5.80
2023-05-27T03:46:30.536Z,6.40
2023-05-27T03:49:01.353Z,6.80
2023-05-27T03:51:32.096Z,6.20
2023-05-27T03:54:02.868Z,6.30
2023-05-27T03:56:33.695Z,6.10
2023-05-27T03:59:04.826Z,6.30
2023-05-27T04:01:35.602Z,5.90
2023-05-27T04:04:06.330Z,6.10
2023-05-27T04:06:37.162Z,6.40
2023-05-27T04:09:07.946Z,5.80
2023-05-27T04:11:38.668Z,5.60
2023-05-27T04:14:09.415Z,6.20
2023-05-27T04:19:09.514Z,5.70
2023-05-27T04:21:40.273Z,5.10
2023-05-27T04:24:11.044Z,4.90
2023-05-27T04:26:41.822Z,5.00
2023-05-27T04:29:12.477Z,4.50
2023-05-27T04:31:43.254Z,5.10
2023-05-27T04:34:13.992Z,5.00
2023-05-27T04:36:45.392Z,5.50
2023-05-27T04:39:16.132Z,5.50
2023-05-27T04:41:46.913Z,5.00
2023-05-27T04:44:17.703Z,5.30
2023-05-27T04:46:48.720Z,6.30
2023-05-27T04:49:19.634Z,7.30
2023-05-27T04:51:50.468Z,5.70
2023-05-27T04:54:21.225Z,5.80
2023-05-27T04:56:52.030Z,5.60
2023-05-27T04:59:22.768Z,5.30
2023-05-27T05:01:53.999Z,4.80
2023-05-27T05:04:24.797Z,4.70
2023-05-27T05:06:55.498Z,5.20
2023-05-27T05:09:26.205Z,4.80
2023-05-27T05:11:56.874Z,4.20
2023-05-27T05:14:27.564Z,4.10
2023-05-27T05:16:58.403Z,4.30
2023-05-27T05:19:29.097Z,4.40
2023-05-27T05:21:59.822Z,4.70
2023-05-27T05:24:30.606Z,4.40
2023-05-27T05:27:01.647Z,5.00
2023-05-27T05:29:32.359Z,4.70
2023-05-27T05:32:03.186Z,4.50
2023-05-27T05:34:34.125Z,4.60
2023-05-27T05:37:05.128Z,5.30
2023-05-27T05:39:35.841Z,5.40
2023-05-27T05:42:07.108Z,4.50
2023-05-27T05:44:37.950Z,4.60
2023-05-27T05:47:08.793Z,4.20
2023-05-27T05:49:39.453Z,4.50
2023-05-27T05:52:10.262Z,4.50
2023-05-27T05:54:41.072Z,4.80
2023-05-27T05:57:12.019Z,5.50
2023-05-27T05:59:42.779Z,4.40
2023-05-27T06:02:13.891Z,5.10
2023-05-27T06:04:45.251Z,4.90
2023-05-27T06:07:16.127Z,4.50
2023-05-27T06:09:47.174Z,5.20
2023-05-27T06:12:18.109Z,5.10
2023-05-27T06:14:48.800Z,4.00
2023-05-27T06:19:48.779Z,4.50
2023-05-27T06:24:48.623Z,4.40
2023-05-27T06:27:19.370Z,4.70
2023-05-27T06:32:19.298Z,4.70
2023-05-27T06:34:50.741Z,4.00
2023-05-27T06:37:21.550Z,3.90
2023-05-27T06:39:52.298Z,4.70
2023-05-27T06:44:52.058Z,4.00
2023-05-27T06:47:22.769Z,4.40
2023-05-27T06:49:53.560Z,4.20
2023-05-27T06:57:24.347Z,4.30
2023-05-27T07:02:24.338Z,4.40
2023-05-27T07:04:55.320Z,4.20
2023-05-27T07:07:27.432Z,4.40
2023-05-27T07:09:58.173Z,4.50
2023-05-27T07:14:58.189Z,4.20
2023-05-27T07:17:28.913Z,3.90
2023-05-27T07:19:59.627Z,4.50
2023-05-27T07:22:30.344Z,3.90
2023-05-27T07:25:04.009Z,3.90
2023-05-27T07:27:34.742Z,4.60
2023-05-27T07:30:08.240Z,4.20
2023-05-27T07:32:38.999Z,4.40
2023-05-27T07:40:12.145Z,4.40
2023-05-27T07:42:42.866Z,5.00
2023-05-27T07:47:44.716Z,4.90
2023-05-27T07:52:44.643Z,4.50
2023-05-27T07:55:15.477Z,4.80
2023-05-27T07:57:46.198Z,4.60
2023-05-27T08:02:46.585Z,5.10
2023-05-27T08:05:17.389Z,4.30
2023-05-27T08:10:17.337Z,4.90
2023-05-27T08:12:48.057Z,4.60
2023-05-27T08:15:18.915Z,4.40
2023-05-27T08:17:49.650Z,5.10
2023-05-27T08:20:21.965Z,5.00
2023-05-27T08:22:52.710Z,4.50
2023-05-27T08:25:23.589Z,4.90
2023-05-27T08:27:55.930Z,4.60
2023-05-27T08:30:26.632Z,5.10
2023-05-27T08:32:57.426Z,5.10
2023-05-27T08:35:28.449Z,4.80
2023-05-27T08:37:59.290Z,4.80
2023-05-27T08:40:30.041Z,4.90
2023-05-27T08:43:00.997Z,4.70
2023-05-27T08:45:31.722Z,4.90
2023-05-27T08:50:31.712Z,4.50
2023-05-27T08:53:04.169Z,5.10
2023-05-27T08:55:43.971Z,5.60
2023-05-27T08:58:15.635Z,4.50
2023-05-27T09:00:49.245Z,4.30
2023-05-27T09:03:19.993Z,5.10
2023-05-27T09:05:50.928Z,5.20
2023-05-27T09:08:23.604Z,5.20
2023-05-27T09:10:57.557Z,4.80
2023-05-27T09:13:32.144Z,4.80
2023-05-27T09:16:04.560Z,4.30
2023-05-27T09:18:36.829Z,5.60
2023-05-27T09:21:07.682Z,4.90
2023-05-27T09:23:40.984Z,4.40
2023-05-27T09:26:12.878Z,4.50
2023-05-27T09:28:43.661Z,4.90
2023-05-27T09:31:14.431Z,4.90
2023-05-27T09:33:45.162Z,4.50
2023-05-27T09:38:46.054Z,4.70
2023-05-27T09:41:24.097Z,4.20
2023-05-27T09:43:57.776Z,5.00
2023-05-27T09:46:29.164Z,4.80
2023-05-27T09:49:00.984Z,4.30
2023-05-27T09:51:32.476Z,4.90
2023-05-27T09:54:04.665Z,4.60
2023-05-27T09:56:36.315Z,4.60
2023-05-27T09:59:07.024Z,5.30
2023-05-27T10:01:39.563Z,4.80
2023-05-27T10:04:10.760Z,5.00
2023-05-27T10:06:41.833Z,4.50
2023-05-27T10:09:12.523Z,4.20
2023-05-27T10:14:13.547Z,4.70
2023-05-27T10:16:53.975Z,4.20
2023-05-27T10:19:25.131Z,4.10
2023-05-27T10:21:56.270Z,4.20
2023-05-27T10:24:48.737Z,3.50
2023-05-27T10:27:19.823Z,4.50
2023-05-27T10:29:59.595Z,3.50
2023-05-27T10:32:31.010Z,4.20
2023-05-27T10:35:02.108Z,3.90
2023-05-27T10:37:36.957Z,3.80
2023-05-27T10:40:10.937Z,3.80
2023-05-27T10:42:42.850Z,3.60
2023-05-27T10:45:13.642Z,3.90
2023-05-27T10:47:47.197Z,3.30
2023-05-27T10:50:18.107Z,4.30
2023-05-27T10:52:51.100Z,3.80
2023-05-27T10:55:22.982Z,3.20
2023-05-27T10:57:53.987Z,3.50
2023-05-27T11:00:27.295Z,3.20
2023-05-27T11:02:58.348Z,3.10
2023-05-27T11:05:31.534Z,3.10
2023-05-27T11:08:03.004Z,3.10
2023-05-27T11:10:33.841Z,3.00
2023-05-27T11:13:04.596Z,3.40
2023-05-27T11:15:35.255Z,3.40
2023-05-27T11:20:39.353Z,2.70
2023-05-27T11:23:10.119Z,3.00
2023-05-27T11:28:19.390Z,3.10
2023-05-27T11:30:53.494Z,3.40
2023-05-27T11:33:37.416Z,3.10
2023-05-27T11:36:12.298Z,3.00
2023-05-27T11:38:56.089Z,3.60
2023-05-27T11:41:28.551Z,3.10
2023-05-27T11:44:00.698Z,2.90
2023-05-27T11:46:38.268Z,3.30
2023-05-27T11:49:11.101Z,3.30
2023-05-27T11:51:43.543Z,2.70
2023-05-27T11:54:20.664Z,2.60
2023-05-27T11:56:52.029Z,2.80
2023-05-27T11:59:24.936Z,2.30
2023-05-27T12:01:55.726Z,2.80
2023-05-27T12:04:26.568Z,2.50
2023-05-27T12:06:57.846Z,2.50
2023-05-27T12:09:30.099Z,2.70
2023-05-27T12:12:00.788Z,2.70
2023-05-27T12:14:31.654Z,2.60
2023-05-27T12:17:02.388Z,2.70
2023-05-27T12:19:33.193Z,2.60
2023-05-27T12:22:04.084Z,2.40
2023-05-27T12:24:34.769Z,2.90
2023-05-27T12:27:05.934Z,2.40
2023-05-27T12:29:36.783Z,2.60
2023-05-27T12:32:07.611Z,2.30
2023-05-27T12:34:38.378Z,2.30
2023-05-27T12:37:10.910Z,2.20
2023-05-27T12:39:43.388Z,2.20
2023-05-27T12:42:14.153Z,1.80
2023-05-27T12:44:44.958Z,2.10
2023-05-27T12:47:15.700Z,2.20
2023-05-27T12:49:46.795Z,1.90
2023-05-27T12:52:17.605Z,2.30
2023-05-27T12:54:48.353Z,2.30
2023-05-27T12:57:19.021Z,2.30
2023-05-27T12:59:49.748Z,1.90
2023-05-27T13:02:20.472Z,1.90
2023-05-27T13:04:51.604Z,1.90
2023-05-27T13:07:24.674Z,2.30
2023-05-27T13:09:55.416Z,2.00
2023-05-27T13:12:26.115Z,1.70
2023-05-27T13:14:58.544Z,2.10
2023-05-27T13:17:29.621Z,1.80
2023-05-27T13:20:00.766Z,1.70
2023-05-27T13:22:31.732Z,1.90
2023-05-27T13:25:02.583Z,2.20
2023-05-27T13:27:33.628Z,1.70
2023-05-27T13:30:04.634Z,1.80
2023-05-27T13:32:35.347Z,1.50
2023-05-27T13:35:07.179Z,1.80
2023-05-27T13:37:37.852Z,1.90
2023-05-27T13:40:10.194Z,1.90
2023-05-27T13:42:41.778Z,1.60
2023-05-27T13:45:12.981Z,1.80
2023-05-27T13:47:44.305Z,1.40
2023-05-27T13:50:15.118Z,2.20
2023-05-27T13:52:45.957Z,1.70
2023-05-27T13:55:22.811Z,1.90
2023-05-27T13:57:53.645Z,1.80
2023-05-27T14:00:24.626Z,1.90
2023-05-27T14:02:55.790Z,1.80
2023-05-27T14:05:26.995Z,2.00
2023-05-27T14:07:57.665Z,1.80
2023-05-27T14:10:28.321Z,1.80
2023-05-27T14:12:59.098Z,2.00
2023-05-27T14:15:30.196Z,1.80
2023-05-27T14:18:00.950Z,1.80
2023-05-27T14:20:31.978Z,1.50
2023-05-27T14:23:02.737Z,1.90
2023-05-27T14:25:33.485Z,1.30
2023-05-27T14:28:04.279Z,1.90
2023-05-27T14:30:35.083Z,1.50
2023-05-27T14:33:06.294Z,1.90
2023-05-27T14:35:37.627Z,1.90
2023-05-27T14:38:09.058Z,1.80
2023-05-27T14:40:40.161Z,1.70
2023-05-27T14:43:10.866Z,1.70
2023-05-27T14:45:43.059Z,1.80
2023-05-27T14:48:13.735Z,2.20
2023-05-27T14:50:44.850Z,1.80
2023-05-27T14:53:15.631Z,1.80
2023-05-27T14:55:46.541Z,2.10
2023-05-27T14:58:17.651Z,2.30
2023-05-27T15:00:48.671Z,1.80
2023-05-27T15:03:19.628Z,1.70
2023-05-27T15:05:50.686Z,1.80
2023-05-27T15:08:21.587Z,2.00
2023-05-27T15:10:52.789Z,1.90
2023-05-27T15:13:23.530Z,2.00
2023-05-27T15:15:54.574Z,2.40
2023-05-27T15:18:25.487Z,1.70
2023-05-27T15:20:56.341Z,1.70
2023-05-27T15:23:27.010Z,2.10
2023-05-27T15:28:26.854Z,1.70
2023-05-27T15:30:57.581Z,2.00
2023-05-27T15:33:28.285Z,2.20
2023-05-27T15:35:59.260Z,2.00
2023-05-27T15:38:30.052Z,2.00
2023-05-27T15:41:01.357Z,2.40
2023-05-27T15:43:32.168Z,2.00
2023-05-27T15:46:04.949Z,1.90
2023-05-27T15:48:36.137Z,2.00
2023-05-27T15:53:36.048Z,2.00
2023-05-27T15:56:07.084Z,2.00
2023-05-27T15:58:38.303Z,2.00
2023-05-27T16:01:09.417Z,2.20
2023-05-27T16:03:40.154Z,1.70
2023-05-27T16:06:12.431Z,2.20
2023-05-27T16:08:43.314Z,2.70
2023-05-27T16:13:43.839Z,2.10
2023-05-27T16:18:44.105Z,2.20
2023-05-27T16:21:14.942Z,2.10
2023-05-27T16:23:50.387Z,2.20
2023-05-27T16:26:27.001Z,1.80
2023-05-27T16:28:57.684Z,2.00
2023-05-27T16:33:57.752Z,2.30
2023-05-27T16:36:29.229Z,2.40
2023-05-27T16:38:59.998Z,2.40
2023-05-27T16:41:30.832Z,1.90
2023-05-27T16:44:01.618Z,2.00
2023-05-27T16:46:32.516Z,1.90
2023-05-27T16:49:03.467Z,2.10
2023-05-27T16:51:34.248Z,1.80
2023-05-27T16:54:05.317Z,2.20
2023-05-27T16:56:36.069Z,2.40
2023-05-27T16:59:07.279Z,2.10
2023-05-27T17:01:38.328Z,1.80
2023-05-27T17:04:09.414Z,2.00
2023-05-27T17:06:40.329Z,2.10
2023-05-27T17:09:11.007Z,1.80
2023-05-27T17:14:10.983Z,2.10
2023-05-27T17:16:41.807Z,2.20
2023-05-27T17:19:12.880Z,2.10
2023-05-27T17:21:43.642Z,2.20
2023-05-27T17:24:14.566Z,2.30
2023-05-27T17:26:45.548Z,2.70
2023-05-27T17:29:16.509Z,3.80
2023-05-27T17:31:47.720Z,4.20
2023-05-27T17:34:18.810Z,4.60
2023-05-27T17:36:50.731Z,4.60
2023-05-27T17:39:22.489Z,4.90
2023-05-27T17:41:54.168Z,2.90
2023-05-27T17:44:25.278Z,2.70
2023-05-27T17:46:57.058Z,3.50
2023-05-27T17:49:28.027Z,3.20
2023-05-27T17:52:02.234Z,3.40
2023-05-27T17:54:36.338Z,3.40
2023-05-27T17:57:07.540Z,3.30
2023-05-27T17:59:38.336Z,4.60
2023-05-27T18:02:09.164Z,6.90
2023-05-27T18:04:40.722Z,6.30
2023-05-27T18:07:12.371Z,4.10
2023-05-27T18:09:43.183Z,3.50
2023-05-27T18:12:14.258Z,4.20
2023-05-27T18:14:45.344Z,4.20
2023-05-27T18:17:16.782Z,8.90
2023-05-27T18:22:16.783Z,4.00
2023-05-27T18:27:17.795Z,5.50
2023-05-27T18:29:49.255Z,5.30
2023-05-27T18:32:21.945Z,4.30
2023-05-27T18:34:52.942Z,6.00
2023-05-27T18:37:23.994Z,6.30
2023-05-27T18:39:55.000Z,7.40
2023-05-27T18:42:26.160Z,6.80
2023-05-27T18:44:57.180Z,8.30
2023-05-27T18:47:28.022Z,8.60
2023-05-27T18:50:00.123Z,7.60
2023-05-27T18:52:31.210Z,8.10
2023-05-27T18:55:02.464Z,8.10
2023-05-27T18:57:34.353Z,8.70
2023-05-27T19:00:08.078Z,7.80
2023-05-27T19:02:39.920Z,7.80
2023-05-27T19:05:13.223Z,7.00
2023-05-27T19:07:44.285Z,7.20
2023-05-27T19:10:15.303Z,7.30
2023-05-27T19:12:46.365Z,6.60
2023-05-27T19:15:17.520Z,7.10
2023-05-27T19:17:49.299Z,8.00
2023-05-27T19:20:20.885Z,7.00
2023-05-27T19:22:51.989Z,7.40
2023-05-27T19:25:23.667Z,8.40
2023-05-27T19:27:55.476Z,10.20
2023-05-27T19:30:29.408Z,8.90
2023-05-27T19:33:00.586Z,9.60
2023-05-27T19:38:01.585Z,9.30
2023-05-27T19:40:35.067Z,9.30
2023-05-27T19:43:05.785Z,9.30
2023-05-27T19:45:36.817Z,8.90
2023-05-27T19:48:07.785Z,8.50
2023-05-27T19:50:42.251Z,12.90
2023-05-27T19:53:13.501Z,12.40
2023-05-27T19:55:45.743Z,12.00
2023-05-27T19:58:17.500Z,12.80
2023-05-27T20:00:49.547Z,15.20
2023-05-27T20:03:21.419Z,19.20
2023-05-27T20:05:52.560Z,25.20
2023-05-27T20:08:23.793Z,29.70
2023-05-27T20:10:54.936Z,25.20
2023-05-27T20:13:26.080Z,25.10
2023-05-27T20:15:58.360Z,23.20
2023-05-27T20:18:30.117Z,21.60
2023-05-27T20:21:01.304Z,23.80
2023-05-27T20:23:32.079Z,21.70
2023-05-27T20:28:32.824Z,20.90
2023-05-27T20:31:03.684Z,19.60
2023-05-27T20:33:34.597Z,17.80
2023-05-27T20:38:34.726Z,22.50
2023-05-27T20:41:05.943Z,22.50
2023-05-27T20:43:37.854Z,22.70
2023-05-27T20:46:08.703Z,24.30
2023-05-27T20:51:08.799Z,21.70
2023-05-27T20:56:08.881Z,25.60
2023-05-27T21:01:09.840Z,26.70
2023-05-27T21:03:40.654Z,20.60
2023-05-27T21:06:11.417Z,17.70
2023-05-27T21:08:42.237Z,16.60
2023-05-27T21:11:13.243Z,14.00
2023-05-27T21:13:46.237Z,13.20
2023-05-27T21:16:19.155Z,15.10
2023-05-27T21:18:50.095Z,13.90
2023-05-27T21:21:21.192Z,13.10
2023-05-27T21:23:53.438Z,13.50
2023-05-27T21:26:24.169Z,12.10
2023-05-27T21:28:55.279Z,11.90
2023-05-27T21:33:55.313Z,12.10
2023-05-27T21:36:26.057Z,12.80
2023-05-27T21:38:56.889Z,12.60
2023-05-27T21:41:27.700Z,12.10
2023-05-27T21:44:25.623Z,10.70
2023-05-27T21:46:56.360Z,11.10
2023-05-27T21:49:28.628Z,11.70
2023-05-27T21:52:00.280Z,11.40
2023-05-27T21:54:31.100Z,12.10
2023-05-27T21:57:02.029Z,12.20
2023-05-27T21:59:33.027Z,11.90
2023-05-27T22:02:04.668Z,10.40
2023-05-27T22:04:35.612Z,11.80
2023-05-27T22:07:06.955Z,12.70
2023-05-27T22:09:40.298Z,12.70
2023-05-27T22:12:11.253Z,13.20
2023-05-27T22:14:41.973Z,14.40
2023-05-27T22:17:12.680Z,14.50
2023-05-27T22:19:43.455Z,12.70
2023-05-27T22:22:14.192Z,12.70
2023-05-27T22:24:44.999Z,13.00
2023-05-27T22:29:45.197Z,11.60
2023-05-27T22:32:16.007Z,11.30
2023-05-27T22:37:15.931Z,10.50
2023-05-27T22:39:46.670Z,10.70
2023-05-27T22:42:17.468Z,11.50
2023-05-27T22:44:48.395Z,11.80
2023-05-27T22:47:19.155Z,11.70
2023-05-27T22:49:49.851Z,11.60
2023-05-27T22:52:21.779Z,12.00
2023-05-27T22:54:52.648Z,12.40
2023-05-27T22:57:23.353Z,14.10
2023-05-27T22:59:54.084Z,13.50
2023-05-27T23:02:24.893Z,13.00
2023-05-27T23:07:24.975Z,12.90
2023-05-27T23:09:55.773Z,13.20
2023-05-27T23:12:26.501Z,13.70
2023-05-27T23:14:57.301Z,13.10
2023-05-27T23:17:28.020Z,12.40
2023-05-27T23:19:58.763Z,11.80
2023-05-27T23:22:29.461Z,12.60
2023-05-27T23:25:00.206Z,12.00
2023-05-27T23:27:30.851Z,12.00
2023-05-27T23:30:01.587Z,11.90
2023-05-27T23:32:32.858Z,11.60
2023-05-27T23:35:03.823Z,10.90
2023-05-27T23:37:34.472Z,10.50
2023-05-27T23:40:05.914Z,10.30
2023-05-27T23:42:36.562Z,9.80
2023-05-27T23:45:09.181Z,10.10
2023-05-27T23:47:39.923Z,10.80
2023-05-27T23:50:11.326Z,9.70
2023-05-27T23:52:42.010Z,10.20
2023-05-27T23:55:19.602Z,10.30
2023-05-27T23:57:50.336Z,10.70
